• Join FlightAware (Why Join?)
  • Login
  • US Flag 
11:33AM EDT


 

Airport Tracker/Info


-or-


 

Live Flight TrackerFlight Track Log ✈ LXJ342 ✈ 05-May-2013 ✈ KSDF - KRSW

Flight Track Log - Related Links

Times and Time Zones

All times are in EDT time to prevent confusion due to time zone crossing. See the LXJ342 flight status page for this flight to view local times or setup timezone preferences in your user account.

Time Position Orientation Groundspeed Altitude Reporting Facility
EDT Latitude Longitude Course Direction KTS MPH feet Rate Location/Type
01:09PM 38.0528 -85.6500 98° East 263 303 5,000  Level Indianapolis Center
01:10PM 38.0633 -85.5586 82° East 261 300 8,000 3,720 Climbing Indianapolis Center
01:11PM 38.0761 -85.4411 82° East 277 319 12,700 4,140 Climbing Indianapolis Center
01:12PM 38.0758 -85.3406 90° East 288 331 16,600 3,480 Climbing Indianapolis Center
01:13PM 38.0108 -84.9138 98° East  Level FlightAware Approximate
01:13PM 38.0633 -85.2406 99° East 287 330 20,000  Level Indianapolis Center
01:14PM 37.9951 -84.7720 98° East  Level FlightAware Approximate
01:14PM 38.0511 -85.1403 99° East 294 338 22,600  Level Indianapolis Center
01:15PM 38.0386 -85.0292 98° East 314 361 24,600 2,100 Climbing Indianapolis Center
01:16PM 38.0189 -84.8925 100° East 334 384 27,000 2,100 Climbing Indianapolis Center
01:17PM 37.9258 -84.8458 158° South 358 412 29,000 1,920 Climbing Indianapolis Center
01:18PM 37.8367 -84.8003 158° South 348 400 31,000 1,680 Climbing Indianapolis Center
01:19PM 37.7472 -84.7553 158° South 346 398 32,500 960 Climbing Indianapolis Center
01:20PM 37.6569 -84.7028 155° Southeast 356 410 33,000 540 Climbing Indianapolis Center
01:21PM 37.5544 -84.6158 146° Southeast 379 436 33,700 960 Climbing Indianapolis Center
01:22PM 37.4697 -84.5397 145° Southeast 376 433 35,100 1,380 Climbing Indianapolis Center
01:23PM 37.3861 -84.4700 146° Southeast 364 419 36,600 900 Climbing Indianapolis Center
01:24PM 37.2911 -84.4253 159° South 365 420 37,000 420 Climbing Indianapolis Center
01:25PM 37.1958 -84.3719 156° South 372 428 37,500 600 Climbing Indianapolis Center
01:26PM 37.0842 -84.3022 154° Southeast 382 440 38,300 600 Climbing Indianapolis Center
01:27PM 36.9894 -84.2411 153° Southeast 383 441 38,800 480 Climbing Indianapolis Center
01:28PM 36.8919 -84.1769 152° Southeast 392 451 39,300 480 Climbing Indianapolis Center
01:29PM 36.7944 -84.1144 153° Southeast 394 453 39,800 480 Climbing Indianapolis Center
01:30PM 36.6978 -84.0494 152° Southeast 395 455 40,300 480 Climbing Indianapolis Center
01:31PM 36.5964 -83.9869 154° Southeast 389 448 40,800 300 Climbing Atlanta Center
01:32PM 36.5003 -83.9225 152° Southeast 389 448 41,000 60 Climbing Atlanta Center
01:33PM 36.3836 -83.8444 152° Southeast 400 460 41,000  Level Indianapolis Center
01:34PM 36.2958 -83.7889 153° Southeast 409 471 41,000  Level Atlanta Center
01:35PM 36.1914 -83.7197 152° Southeast 414 476 41,000  Level Atlanta Center
01:36PM 36.0869 -83.6508 152° Southeast 420 483 41,000  Level Atlanta Center
01:37PM 35.9803 -83.5844 153° Southeast 425 489 41,000  Level Atlanta Center
01:38PM 35.8736 -83.5133 152° Southeast 425 489 41,000  Level Atlanta Center
01:39PM 35.7711 -83.4475 152° Southeast 425 489 41,000  Level Atlanta Center
01:40PM 35.6644 -83.3817 153° Southeast 425 489 41,000  Level Atlanta Center
01:41PM 35.5597 -83.3111 151° Southeast 425 489 41,000  Level Atlanta Center
01:42PM 35.4550 -83.2458 153° Southeast 425 489 41,000  Level Atlanta Center
01:43PM 35.3481 -83.1781 153° Southeast 425 489 41,000  Level Atlanta Center
01:44PM 35.2392 -83.1106 153° Southeast 433 498 41,000  Level Atlanta Center
01:45PM 35.1239 -83.0408 154° Southeast 422 486 41,000  Level Atlanta Center
01:46PM 35.0208 -82.9736 152° Southeast 422 486 41,000  Level Atlanta Center
01:47PM 34.9369 -82.9214 153° Southeast 422 486 41,000  Level Atlanta Center
01:48PM 34.8153 -82.8419 152° Southeast 422 486 41,000  Level Atlanta Center
01:49PM 34.7081 -82.7778 154° Southeast 422 486 41,000  Level Atlanta Center
01:50PM 34.6094 -82.7139 152° Southeast 432 497 41,000  Level Atlanta Center
01:51PM 34.5022 -82.6475 153° Southeast 432 497 41,000  Level Atlanta Center
01:52PM 34.3844 -82.5764 154° Southeast 426 490 41,000  Level Atlanta Center
01:53PM 34.2714 -82.5381 164° South 426 490 41,000  Level Atlanta Center
01:54PM 34.1567 -82.5403 181° South 412 474 41,000  Level Atlanta Center
01:55PM 34.0397 -82.5372 179° South 419 482 41,000  Level Atlanta Center
01:56PM 33.9228 -82.5392 181° South 419 482 41,000  Level Atlanta Center
01:57PM 33.8125 -82.5611 189° South 413 475 41,000  Level Atlanta Center
01:58PM 33.6981 -82.5831 189° South 418 481 41,000  Level Atlanta Center
01:59PM 33.5814 -82.6100 191° South 413 475 41,000 -300 Level Atlanta Center
02:00PM 33.4669 -82.6344 190° South 418 481 40,400 -540 Descending Atlanta Center
02:01PM 33.3647 -82.6583 191° South 418 481 40,000 -240 Descending Atlanta Center
02:02PM 33.2544 -82.6825 190° South 408 470 40,000  Level Atlanta Center
02:03PM 33.1442 -82.7067 190° South 408 470 40,000  Level Atlanta Center
02:04PM 33.0339 -82.7331 191° South 408 470 40,000  Level Atlanta Center
02:05PM 32.9192 -82.7594 191° South 413 475 40,000  Level Atlanta Center
02:06PM 32.7897 -82.7442 174° South 418 481 40,000  Level Atlanta Center
02:07PM 32.6747 -82.7236 171° South 423 487 40,000  Level Atlanta Center
02:10PM 32.3833 -82.6639 170° South 426 490 40,000  Level Jacksonville Center
02:11PM 32.2622 -82.6419 171° South 433 498 40,000  Level Jacksonville Center
02:12PM 32.1433 -82.6178 170° South 433 498 40,000  Level Jacksonville Center
02:13PM 32.0264 -82.5961 171° South 433 498 40,000  Level Jacksonville Center
02:14PM 31.9053 -82.5744 171° South 433 498 40,000  Level Jacksonville Center
02:15PM 31.7839 -82.5431 168° South 438 504 40,000  Level Jacksonville Center
02:16PM 31.6650 -82.5117 167° South 443 510 40,000  Level Jacksonville Center
02:17PM 31.5417 -82.4781 167° South 448 516 40,000  Level Jacksonville Center
02:18PM 31.4203 -82.4469 168° South 448 516 40,000  Level Jacksonville Center
02:19PM 31.3117 -82.4256 170° South 448 516 40,000  Level Jacksonville Center
02:20PM 31.1883 -82.3922 167° South 448 516 40,000  Level Jacksonville Center
02:21PM 31.0672 -82.3614 168° South 448 516 40,000  Level Jacksonville Center
02:22PM 30.9439 -82.3283 167° South 448 516 40,000  Level Jacksonville Center
02:23PM 30.8225 -82.2975 168° South 448 516 40,000  Level Jacksonville Center
02:24PM 30.7056 -82.2644 166° South 448 516 40,000  Level Jacksonville Center
02:25PM 30.5842 -82.2361 169° South 448 516 40,000  Level Jacksonville Center
02:26PM 30.4525 -82.1961 165° South 448 516 40,000  Level Jacksonville Center
02:27PM 30.3314 -82.1681 169° South 448 516 40,000  Level Jacksonville Center
02:28PM 30.2119 -82.1356 167° South 443 510 40,000 -300 Level Jacksonville Center
02:29PM 30.0950 -82.1100 169° South 432 497 39,500 -720 Descending Jacksonville Center
02:30PM 29.9842 -82.0939 173° South 437 503 38,600 -960 Descending Jacksonville Center
02:31PM 29.8672 -82.0686 169° South 437 503 37,600 -1,080 Descending Jacksonville Center
02:32PM 29.7356 -82.0411 170° South 437 503 36,500 -1,020 Descending Jacksonville Center
02:33PM 29.6247 -82.0231 172° South 437 503 35,600 -780 Descending Jacksonville Center
02:34PM 29.5033 -81.9978 170° South 447 514 35,000 -300 Descending Jacksonville Center
02:35PM 29.3842 -81.9725 170° South 447 514 35,000  Level Jacksonville Center
02:36PM 29.2608 -81.9475 170° South 447 514 35,000 -600 Level Jacksonville Center
02:37PM 29.1250 -81.9203 170° South 447 514 33,900 -1,320 Descending Jacksonville Center
02:39PM 28.8764 -81.8714 170° South 456 525 31,000 -1,440 Descending Miami Center
02:40PM 28.7583 -81.8472 170° South 443 510 29,500 -1,500 Descending Miami Center
02:41PM 28.6403 -81.8253 171° South 443 510 28,000 -1,260 Descending Miami Center
02:42PM 28.5286 -81.7992 168° South 431 496 27,000 -600 Descending Miami Center
02:43PM 28.4189 -81.7708 167° South 420 483 26,900 -540 Descending Miami Center
02:44PM 28.3014 -81.7350 165° South 420 483 26,000 -960 Descending Miami Center
02:45PM 28.1875 -81.7042 167° South 426 490 25,000 -1,020 Descending Miami Center
02:46PM 28.0719 -81.6708 166° South 431 496 24,000 -1,080 Descending Miami Center
02:47PM 27.9608 -81.6872 187° South 406 467 22,900 -1,080 Descending Miami Center
02:48PM 27.8539 -81.7014 187° South 406 467 21,900 -1,020 Descending Miami Center
02:49PM 27.7442 -81.6711 166° South 406 467 20,900 -1,080 Descending Miami Center
02:50PM 27.6244 -81.6381 166° South 412 474 19,800 -1,380 Descending Miami Center
02:51PM 27.5167 -81.6100 167° South 412 474 18,200 -1,680 Descending Miami Center
02:52PM 27.4069 -81.5844 168° South 412 474 16,500 -1,740 Descending Miami Center
02:53PM 27.3014 -81.5567 167° South 401 461 14,800 -1,740 Descending Miami Center
02:54PM 27.2000 -81.5292 166° South 391 450 13,100 -1,680 Descending Miami Center
02:55PM 27.0983 -81.5067 169° South 380 437 11,500 -1,500 Descending Miami Center
02:56PM 27.0094 -81.4797 165° South 363 418 10,100 -780 Descending Miami Center
02:57PM 26.9272 -81.4392 156° South 344 396 10,000 -60 Descending Miami Center
02:58PM 26.8369 -81.3914 155° Southeast 350 403 10,000  Level Miami Center
02:59PM 26.7328 -81.3850 177° South 341 392 10,000 -780 Level Miami Center
03:00PM 26.6567 -81.4169 201° Southwest 302 348 8,500 -1,440 Descending Miami Center
03:01PM 26.6108 -81.4825 232° Southwest 274 315 7,200 -1,380 Descending Miami Center
03:02PM 26.5753 -81.5461 238° Southwest 280 322 5,800 -1,440 Descending Miami Center
03:03PM 26.5292 -81.6117 232° Southwest 274 315 4,400 -1,440 Descending Miami Center
03:05PM 26.5333 -81.7500 318° Northwest  Level FlightAware Approximate
03:12PM 26.5362 -81.7552 318° Northwest  Level Estimated
03:13PM 26.5333 -81.7500 318° Northwest  Level FlightAware Approximate
03:14PM 26.5362 -81.7552 318° Northwest  Level Estimated
03:15PM 26.5333 -81.7500 318° Northwest  Level FlightAware Approximate
03:16PM 26.5362 -81.7552 318° Northwest  Level Estimated
03:17PM 26.5333 -81.7500 318° Northwest  Level FlightAware Approximate
03:18PM 26.5362 -81.7552 318° Northwest  Level Estimated
03:19PM 26.5333 -81.7500 318° Northwest  Level FlightAware Approximate
03:20PM 26.5362 -81.7552 318° Northwest  Level Estimated
03:21PM 26.5333 -81.7500 318° Northwest  Level FlightAware Approximate